Disclaimer

Please do not use the information listed here in-flight or in-navigation, as they are not provided to us by the airports but are provided by volunteers, so they might be outdated.

Search


Regions


Airport information page

Radio informations:
RDO - 118.6 MHz

Airport informations:
Latitude: 34° 46' 55.32" N
Longitude: 139° 21' 37.10" E
Elevation: 130 feet - 40 meters
Operating hours: Remarks
Operating agency: Civil government, landing fees and diplomatic clearance may be required
Timezone: UTC+9
Fuel: N/A

Runway information:
03/21 - 5905 x 150 feet< - >1800 x 46 meters

Recent METARs:
RJTO 210000Z 05006KT 020V090 9999 FEW050 BKN/// 15/07 Q1023
RJTO 210000Z 05006KT 020V090 9999 FEW050 BKN/// 15/07 Q1023
RJTO 210100Z 03006KT 9999 FEW030 SCT045 16/09 Q1023

Airport on the map: